createdAt,value
2023-02-04T00:00:19.110Z,11.26
2023-02-04T00:02:47.353Z,11.30
2023-02-04T00:05:15.866Z,11.30
2023-02-04T00:07:43.788Z,11.31
2023-02-04T00:10:11.922Z,11.32
2023-02-04T00:12:41.190Z,11.29
2023-02-04T00:15:10.866Z,11.32
2023-02-04T00:17:39.566Z,11.36
2023-02-04T00:20:08.207Z,11.31
2023-02-04T00:22:36.149Z,11.34
2023-02-04T00:25:04.099Z,11.36
2023-02-04T00:27:31.980Z,11.32
2023-02-04T00:30:01.298Z,11.37
2023-02-04T00:32:29.597Z,11.39
2023-02-04T00:34:57.624Z,11.41
2023-02-04T00:37:25.495Z,11.40
2023-02-04T00:39:53.401Z,11.44
2023-02-04T00:42:21.258Z,11.43
2023-02-04T00:44:49.376Z,11.45
2023-02-04T00:47:18.694Z,11.43
2023-02-04T00:49:46.526Z,11.43
2023-02-04T00:52:14.613Z,11.42
2023-02-04T00:54:42.602Z,11.41
2023-02-04T00:57:10.575Z,11.42
2023-02-04T00:59:38.437Z,11.42
2023-02-04T01:02:06.357Z,11.42
2023-02-04T01:04:35.621Z,11.42
2023-02-04T01:07:03.496Z,11.43
2023-02-04T01:09:31.434Z,11.41
2023-02-04T01:11:59.382Z,11.42
2023-02-04T01:14:27.245Z,11.37
2023-02-04T01:16:55.069Z,11.36
2023-02-04T01:19:22.968Z,11.37
2023-02-04T01:21:52.301Z,11.37
2023-02-04T01:24:20.180Z,11.35
2023-02-04T01:26:48.033Z,11.36
2023-02-04T01:29:15.939Z,11.33
2023-02-04T01:31:43.883Z,11.33
2023-02-04T01:34:11.819Z,11.33
2023-02-04T01:36:39.791Z,11.35
2023-02-04T01:39:09.188Z,11.32
2023-02-04T01:41:36.993Z,11.32
2023-02-04T01:44:05.051Z,11.36
2023-02-04T01:46:34.471Z,11.33
2023-02-04T01:49:02.554Z,11.26
2023-02-04T01:51:32.152Z,11.29
2023-02-04T01:54:00.426Z,11.32
2023-02-04T01:56:31.488Z,11.34
2023-02-04T01:59:00.043Z,11.35
2023-02-04T02:01:35.472Z,11.33
2023-02-04T02:04:03.431Z,11.34
2023-02-04T02:06:31.310Z,11.35
2023-02-04T02:08:59.603Z,11.34
2023-02-04T02:11:28.073Z,11.34
2023-02-04T02:13:58.206Z,11.30
2023-02-04T02:16:26.154Z,11.28
2023-02-04T02:18:54.710Z,11.29
2023-02-04T02:21:27.702Z,11.31
2023-02-04T02:23:58.312Z,11.32
2023-02-04T02:26:26.362Z,11.29
2023-02-04T02:28:55.117Z,11.25
2023-02-04T02:31:23.982Z,11.27
2023-02-04T02:33:52.024Z,11.23
2023-02-04T02:36:20.112Z,11.21
2023-02-04T02:38:48.004Z,11.26
2023-02-04T02:41:17.252Z,11.27
2023-02-04T02:43:45.096Z,11.27
2023-02-04T02:46:13.105Z,11.29
2023-02-04T02:48:41.009Z,11.24
2023-02-04T02:51:08.968Z,11.24
2023-02-04T02:53:37.277Z,11.22
2023-02-04T02:56:08.380Z,11.18
2023-02-04T02:58:37.644Z,11.27
2023-02-04T03:01:06.527Z,11.30
2023-02-04T03:03:35.369Z,11.28
2023-02-04T03:06:06.769Z,11.25
2023-02-04T03:08:34.844Z,11.25
2023-02-04T03:11:02.944Z,11.26
2023-02-04T03:13:31.068Z,11.26
2023-02-04T03:16:01.046Z,11.22
2023-02-04T03:18:29.047Z,11.21
2023-02-04T03:20:57.338Z,11.20
2023-02-04T03:23:25.260Z,11.20
2023-02-04T03:25:53.637Z,11.25
2023-02-04T03:28:21.469Z,11.28
2023-02-04T03:30:56.590Z,11.27
2023-02-04T03:33:28.159Z,11.25
2023-02-04T03:35:56.391Z,11.22
2023-02-04T03:38:25.905Z,11.15
2023-02-04T03:40:53.885Z,11.17
2023-02-04T03:43:21.964Z,11.18
2023-02-04T03:45:49.944Z,11.17
2023-02-04T03:48:17.953Z,11.18
2023-02-04T03:50:47.236Z,11.19
2023-02-04T03:53:15.130Z,11.13
2023-02-04T03:55:43.020Z,11.15
2023-02-04T03:58:10.868Z,11.10
2023-02-04T04:00:38.861Z,11.14
2023-02-04T04:03:06.864Z,11.10
2023-02-04T04:05:34.848Z,11.12
2023-02-04T04:08:04.026Z,11.11
2023-02-04T04:10:32.393Z,11.12
2023-02-04T04:13:00.546Z,11.16
2023-02-04T04:15:28.490Z,11.13
2023-02-04T04:17:56.281Z,11.14
2023-02-04T04:20:25.687Z,11.12
2023-02-04T04:22:53.579Z,11.09
2023-02-04T04:25:22.955Z,11.10
2023-02-04T04:27:50.874Z,11.13
2023-02-04T04:30:19.120Z,11.13
2023-02-04T04:32:47.081Z,11.14
2023-02-04T04:35:15.157Z,11.13
2023-02-04T04:37:43.180Z,11.13
2023-02-04T04:40:12.756Z,11.14
2023-02-04T04:42:42.028Z,11.10
2023-02-04T04:45:10.515Z,11.12
2023-02-04T04:47:38.337Z,11.12
2023-02-04T04:50:06.420Z,11.10
2023-02-04T04:52:34.444Z,11.10
2023-02-04T04:55:02.374Z,11.10
2023-02-04T04:57:30.205Z,11.09
2023-02-04T04:59:59.497Z,11.08
2023-02-04T05:02:27.672Z,11.08
2023-02-04T05:04:58.570Z,11.07
2023-02-04T05:07:26.537Z,11.09
2023-02-04T05:09:54.492Z,11.07
2023-02-04T05:12:22.395Z,11.06
2023-02-04T05:14:50.331Z,11.06
2023-02-04T05:17:19.787Z,11.05
2023-02-04T05:19:47.713Z,11.05
2023-02-04T05:22:15.558Z,11.04
2023-02-04T05:24:43.375Z,10.99
2023-02-04T05:27:11.231Z,11.02
2023-02-04T05:29:39.223Z,11.03
2023-02-04T05:32:07.082Z,11.03
2023-02-04T05:34:36.480Z,11.02
2023-02-04T05:37:04.447Z,11.05
2023-02-04T05:39:32.354Z,11.06
2023-02-04T05:42:00.257Z,11.04
2023-02-04T05:44:28.140Z,11.06
2023-02-04T05:46:56.032Z,11.02
2023-02-04T05:49:24.871Z,11.07
2023-02-04T05:51:54.237Z,11.10
2023-02-04T05:54:22.150Z,11.11
2023-02-04T05:56:51.871Z,11.04
2023-02-04T05:59:19.797Z,11.03
2023-02-04T06:01:47.636Z,11.03
2023-02-04T06:04:16.675Z,11.03
2023-02-04T06:06:44.893Z,11.08
2023-02-04T06:09:14.555Z,11.06
2023-02-04T06:11:42.496Z,11.07
2023-02-04T06:14:10.890Z,11.08
2023-02-04T06:16:38.805Z,11.07
2023-02-04T06:19:06.744Z,11.05
2023-02-04T06:21:34.566Z,11.03
2023-02-04T06:24:03.520Z,11.06
2023-02-04T06:26:33.418Z,11.06
2023-02-04T06:29:02.606Z,11.04
2023-02-04T06:31:30.692Z,11.09
2023-02-04T06:33:58.833Z,11.08
2023-02-04T06:36:26.811Z,11.05
2023-02-04T06:38:54.788Z,11.02
2023-02-04T06:41:22.847Z,11.05
2023-02-04T06:43:52.069Z,11.06
2023-02-04T06:46:20.119Z,11.08
2023-02-04T06:48:48.047Z,11.04
2023-02-04T06:51:16.458Z,11.08
2023-02-04T06:53:46.127Z,11.08
2023-02-04T06:56:14.031Z,11.13
2023-02-04T06:58:42.022Z,11.10
2023-02-04T07:01:11.290Z,11.07
2023-02-04T07:03:39.273Z,11.08
2023-02-04T07:06:07.319Z,11.10
2023-02-04T07:08:35.296Z,11.11
2023-02-04T07:11:03.276Z,11.12
2023-02-04T07:13:31.249Z,11.08
2023-02-04T07:15:59.106Z,11.10
2023-02-04T07:18:28.546Z,11.11
2023-02-04T07:20:56.567Z,11.15
2023-02-04T07:23:25.597Z,11.16
2023-02-04T07:25:54.128Z,11.14
2023-02-04T07:28:21.990Z,11.11
2023-02-04T07:30:49.982Z,11.13
2023-02-04T07:33:18.861Z,11.16
2023-02-04T07:35:48.145Z,11.15
2023-02-04T07:38:16.020Z,11.10
2023-02-04T07:40:43.963Z,11.14
2023-02-04T07:43:12.132Z,11.16
2023-02-04T07:45:40.033Z,11.16
2023-02-04T07:48:07.931Z,11.15
2023-02-04T07:50:35.825Z,11.16
2023-02-04T07:53:05.198Z,11.14
2023-02-04T07:55:33.142Z,11.15
2023-02-04T07:58:01.004Z,11.13
2023-02-04T08:00:29.047Z,11.16
2023-02-04T08:02:56.937Z,11.16
2023-02-04T08:05:24.832Z,11.13
2023-02-04T08:07:52.818Z,11.15
2023-02-04T08:10:22.598Z,11.11
2023-02-04T08:12:50.484Z,11.16
2023-02-04T08:15:18.384Z,11.14
2023-02-04T08:17:46.282Z,11.15
2023-02-04T08:20:14.336Z,11.10
2023-02-04T08:22:42.326Z,11.13
2023-02-04T08:25:11.782Z,11.12
2023-02-04T08:27:41.108Z,11.14
2023-02-04T08:30:09.990Z,11.13
2023-02-04T08:32:38.085Z,11.11
2023-02-04T08:35:06.607Z,11.11
2023-02-04T08:37:34.527Z,11.12
2023-02-04T08:40:02.369Z,11.06
2023-02-04T08:42:30.499Z,11.04
2023-02-04T08:44:59.769Z,11.12
2023-02-04T08:47:27.656Z,11.13
2023-02-04T08:49:55.605Z,11.14
2023-02-04T08:52:23.532Z,11.17
2023-02-04T08:54:51.524Z,11.15
2023-02-04T08:57:19.552Z,11.17
2023-02-04T08:59:47.400Z,11.14
2023-02-04T09:02:16.695Z,11.13
2023-02-04T09:04:44.602Z,11.17
2023-02-04T09:07:12.525Z,11.19
2023-02-04T09:09:40.459Z,11.14
2023-02-04T09:12:08.400Z,11.15
2023-02-04T09:14:36.325Z,11.18
2023-02-04T09:17:05.943Z,11.20
2023-02-04T09:19:35.265Z,11.20
2023-02-04T09:22:03.086Z,11.25
2023-02-04T09:24:30.882Z,11.26
2023-02-04T09:26:58.761Z,11.27
2023-02-04T09:29:26.556Z,11.35
2023-02-04T09:31:54.584Z,11.37
2023-02-04T09:34:22.709Z,11.38
2023-02-04T09:36:52.020Z,11.38
2023-02-04T09:39:19.934Z,11.35
2023-02-04T09:41:47.822Z,11.39
2023-02-04T09:44:17.497Z,11.34
2023-02-04T09:46:48.618Z,11.43
2023-02-04T09:49:16.642Z,11.42
2023-02-04T09:51:45.104Z,11.44
2023-02-04T09:54:15.533Z,11.42
2023-02-04T09:56:43.576Z,11.49
2023-02-04T09:59:12.972Z,11.55
2023-02-04T10:01:41.057Z,11.60
2023-02-04T10:04:11.763Z,11.64
2023-02-04T10:06:40.029Z,11.65
2023-02-04T10:09:07.988Z,11.68
2023-02-04T10:11:38.595Z,11.62
2023-02-04T10:14:06.676Z,11.61
2023-02-04T10:16:36.260Z,11.57
2023-02-04T10:19:05.306Z,11.61
2023-02-04T10:21:34.757Z,11.67
2023-02-04T10:24:04.025Z,11.59
2023-02-04T10:26:32.615Z,11.70
2023-02-04T10:29:04.064Z,11.75
2023-02-04T10:31:41.117Z,11.72
2023-02-04T10:34:12.489Z,11.67
2023-02-04T10:36:40.768Z,11.76
2023-02-04T10:39:12.788Z,11.66
2023-02-04T10:41:45.691Z,11.58
2023-02-04T10:44:16.187Z,11.60
2023-02-04T10:46:43.987Z,11.59
2023-02-04T10:49:19.288Z,11.61
2023-02-04T10:51:47.918Z,11.70
2023-02-04T10:54:31.586Z,11.75
2023-02-04T10:57:05.908Z,11.73
2023-02-04T10:59:35.900Z,11.70
2023-02-04T11:02:16.516Z,11.74
2023-02-04T11:04:44.359Z,11.78
2023-02-04T11:07:15.041Z,11.86
2023-02-04T11:09:43.238Z,11.92
2023-02-04T11:12:20.496Z,11.97
2023-02-04T11:14:57.546Z,11.94
2023-02-04T11:17:31.587Z,12.00
2023-02-04T11:20:00.878Z,12.01
2023-02-04T11:22:42.117Z,12.05
2023-02-04T11:25:24.881Z,12.10
2023-02-04T11:27:52.733Z,12.11
2023-02-04T11:30:23.741Z,12.10
2023-02-04T11:33:02.188Z,12.14
2023-02-04T11:35:31.046Z,12.13
2023-02-04T11:37:59.677Z,12.13
2023-02-04T11:40:29.317Z,12.11
2023-02-04T11:42:58.318Z,12.12
2023-02-04T11:45:28.729Z,12.17
2023-02-04T11:47:58.744Z,12.19
2023-02-04T11:50:29.229Z,12.21
2023-02-04T11:52:57.830Z,12.18
2023-02-04T11:55:26.367Z,12.21
2023-02-04T11:57:55.026Z,12.27
2023-02-04T12:00:23.819Z,12.23
2023-02-04T12:02:56.592Z,12.31
2023-02-04T12:05:36.208Z,12.27
2023-02-04T12:08:11.933Z,12.42
2023-02-04T12:10:39.988Z,12.47
2023-02-04T12:13:14.350Z,12.48
2023-02-04T12:15:42.252Z,12.50
2023-02-04T12:18:12.995Z,12.53
2023-02-04T12:20:40.900Z,12.59
2023-02-04T12:23:08.826Z,12.62
2023-02-04T12:25:37.223Z,12.67
2023-02-04T12:28:05.471Z,12.62
2023-02-04T12:30:33.437Z,12.71
2023-02-04T12:33:01.364Z,12.72
2023-02-04T12:35:30.961Z,12.75
2023-02-04T12:37:59.142Z,12.77
2023-02-04T12:40:27.001Z,12.74
2023-02-04T12:42:54.909Z,12.77
2023-02-04T12:45:22.761Z,12.82
2023-02-04T12:47:50.738Z,12.78
2023-02-04T12:50:22.777Z,12.79
2023-02-04T12:52:53.512Z,12.81
2023-02-04T12:55:21.607Z,12.78
2023-02-04T12:57:49.589Z,12.79
2023-02-04T13:00:18.574Z,12.88
2023-02-04T13:02:46.780Z,12.95
2023-02-04T13:05:14.980Z,13.02
2023-02-04T13:07:43.265Z,13.01
2023-02-04T13:10:13.558Z,12.99
2023-02-04T13:12:41.596Z,12.94
2023-02-04T13:15:10.142Z,12.95
2023-02-04T13:17:38.013Z,12.95
2023-02-04T13:20:09.012Z,12.98
2023-02-04T13:22:36.792Z,12.97
2023-02-04T13:25:04.900Z,13.09
2023-02-04T13:27:34.170Z,13.18
2023-02-04T13:30:02.041Z,13.25
2023-02-04T13:32:29.957Z,13.24
2023-02-04T13:34:57.880Z,13.27
2023-02-04T13:37:25.722Z,13.23
2023-02-04T13:39:53.564Z,13.20
2023-02-04T13:42:21.707Z,13.24
2023-02-04T13:44:50.923Z,13.23
2023-02-04T13:47:18.810Z,13.18
2023-02-04T13:49:46.872Z,13.14
2023-02-04T13:52:14.758Z,13.14
2023-02-04T13:54:42.655Z,13.08
2023-02-04T13:57:10.539Z,13.04
2023-02-04T13:59:38.478Z,12.98
2023-02-04T14:02:07.929Z,12.95
2023-02-04T14:04:36.949Z,12.94
2023-02-04T14:07:04.981Z,12.90
2023-02-04T14:09:32.870Z,12.94
2023-02-04T14:12:00.766Z,12.92
2023-02-04T14:14:28.676Z,12.92
2023-02-04T14:16:56.587Z,12.98
2023-02-04T14:19:27.718Z,12.96
2023-02-04T14:21:55.661Z,12.93
2023-02-04T14:24:23.563Z,12.98
2023-02-04T14:26:51.947Z,12.92
2023-02-04T14:29:19.953Z,13.01
2023-02-04T14:31:47.841Z,13.10
2023-02-04T14:34:15.811Z,13.12
2023-02-04T14:36:45.076Z,13.10
2023-02-04T14:39:12.999Z,13.18
2023-02-04T14:41:40.973Z,13.13
2023-02-04T14:44:08.778Z,13.13
2023-02-04T14:46:36.631Z,13.14
2023-02-04T14:49:04.640Z,13.19
2023-02-04T14:51:32.534Z,13.10
2023-02-04T14:54:02.754Z,13.12
2023-02-04T14:56:30.597Z,13.07
2023-02-04T14:58:58.451Z,13.03
2023-02-04T15:01:27.634Z,12.91
2023-02-04T15:03:55.544Z,12.89
2023-02-04T15:06:23.437Z,12.86
2023-02-04T15:08:51.409Z,12.82
2023-02-04T15:11:20.670Z,12.82
2023-02-04T15:13:48.529Z,12.79
2023-02-04T15:16:16.441Z,12.73
2023-02-04T15:18:44.602Z,12.75
2023-02-04T15:21:13.156Z,12.75
2023-02-04T15:23:40.995Z,12.71
2023-02-04T15:26:08.900Z,12.72
2023-02-04T15:28:38.191Z,12.75
2023-02-04T15:31:06.458Z,12.73
2023-02-04T15:33:34.469Z,12.69
2023-02-04T15:36:02.361Z,12.66
2023-02-04T15:38:30.188Z,12.57
2023-02-04T15:40:58.029Z,12.48
2023-02-04T15:43:25.912Z,12.47
2023-02-04T15:45:55.176Z,12.38
2023-02-04T15:48:24.188Z,12.24
2023-02-04T15:50:52.121Z,12.18
2023-02-04T15:53:19.998Z,12.21
2023-02-04T15:55:47.976Z,12.19
2023-02-04T15:58:16.398Z,12.15
2023-02-04T16:00:44.339Z,12.10
2023-02-04T16:03:13.626Z,12.09
2023-02-04T16:05:41.547Z,12.00
2023-02-04T16:08:09.519Z,11.95
2023-02-04T16:10:37.319Z,11.91
2023-02-04T16:13:05.211Z,11.79
2023-02-04T16:15:33.475Z,11.59
2023-02-04T16:18:01.646Z,11.43
2023-02-04T16:20:30.967Z,11.28
2023-02-04T16:22:58.828Z,11.04
2023-02-04T16:25:26.805Z,10.82
2023-02-04T16:27:54.736Z,10.77
2023-02-04T16:30:22.751Z,10.64
2023-02-04T16:32:50.605Z,10.54
2023-02-04T16:35:18.585Z,10.48
2023-02-04T16:37:47.867Z,10.38
2023-02-04T16:40:15.650Z,10.36
2023-02-04T16:42:43.582Z,10.32
2023-02-04T16:45:13.513Z,10.32
2023-02-04T16:47:41.516Z,10.34
2023-02-04T16:50:09.896Z,10.31
2023-02-04T16:52:37.872Z,10.34
2023-02-04T16:55:07.630Z,10.36
2023-02-04T16:57:35.604Z,10.34
2023-02-04T17:00:03.375Z,10.32
2023-02-04T17:02:32.327Z,10.31
2023-02-04T17:05:01.624Z,10.33
2023-02-04T17:07:29.460Z,10.31
2023-02-04T17:09:57.442Z,10.26
2023-02-04T17:12:26.681Z,10.29
2023-02-04T17:14:54.543Z,10.27
2023-02-04T17:17:22.383Z,10.29
2023-02-04T17:19:50.186Z,10.27
2023-02-04T17:22:17.981Z,10.28
2023-02-04T17:24:46.025Z,10.26
2023-02-04T17:27:14.222Z,10.24
2023-02-04T17:29:43.457Z,10.29
2023-02-04T17:32:12.584Z,10.31
2023-02-04T17:34:40.498Z,10.34
2023-02-04T17:37:08.316Z,10.31
2023-02-04T17:39:36.140Z,10.30
2023-02-04T17:42:04.057Z,10.27
2023-02-04T17:44:34.026Z,10.24
2023-02-04T17:47:03.455Z,10.21
2023-02-04T17:49:33.589Z,10.20
2023-02-04T17:52:02.177Z,10.22
2023-02-04T17:54:30.231Z,10.21
2023-02-04T17:56:58.991Z,10.21
2023-02-04T17:59:27.343Z,10.17
2023-02-04T18:01:55.543Z,10.15
2023-02-04T18:04:25.113Z,10.13
2023-02-04T18:06:53.299Z,10.14
2023-02-04T18:09:21.316Z,10.12
2023-02-04T18:11:49.264Z,10.09
2023-02-04T18:14:18.190Z,10.07
2023-02-04T18:16:46.470Z,10.06
2023-02-04T18:19:18.997Z,10.04
2023-02-04T18:21:48.917Z,10.04
2023-02-04T18:24:19.316Z,9.99
2023-02-04T18:26:48.032Z,9.98
2023-02-04T18:29:25.832Z,10.01
2023-02-04T18:31:54.796Z,9.97
2023-02-04T18:34:27.440Z,9.95
2023-02-04T18:36:56.790Z,9.94
2023-02-04T18:39:27.764Z,9.92
2023-02-04T18:41:55.716Z,9.90
2023-02-04T18:44:32.886Z,9.88
2023-02-04T18:47:03.307Z,9.80
2023-02-04T18:49:33.838Z,9.83
2023-02-04T18:52:06.699Z,9.80
2023-02-04T18:54:35.873Z,9.74
2023-02-04T18:57:17.415Z,9.70
2023-02-04T18:59:45.260Z,9.66
2023-02-04T19:02:25.207Z,9.66
2023-02-04T19:05:11.120Z,9.63
2023-02-04T19:07:41.766Z,9.61
2023-02-04T19:10:25.934Z,9.60
2023-02-04T19:12:54.384Z,9.56
2023-02-04T19:15:35.131Z,9.54
2023-02-04T19:18:15.844Z,9.52
2023-02-04T19:20:43.739Z,9.49
2023-02-04T19:23:17.476Z,9.46
2023-02-04T19:25:46.891Z,9.41
2023-02-04T19:28:24.605Z,9.43
2023-02-04T19:30:55.382Z,9.37
2023-02-04T19:33:26.714Z,9.31
2023-02-04T19:35:54.808Z,9.30
2023-02-04T19:38:34.959Z,9.28
2023-02-04T19:41:02.756Z,9.25
2023-02-04T19:43:36.551Z,9.21
2023-02-04T19:46:18.367Z,9.19
2023-02-04T19:48:46.957Z,9.18
2023-02-04T19:51:26.420Z,9.14
2023-02-04T19:53:59.221Z,9.10
2023-02-04T19:56:30.660Z,9.09
2023-02-04T19:59:01.225Z,9.06
2023-02-04T20:01:30.498Z,9.05
2023-02-04T20:04:01.251Z,9.03
2023-02-04T20:06:31.204Z,9.01
2023-02-04T20:09:02.067Z,8.98
2023-02-04T20:11:47.401Z,8.97
2023-02-04T20:14:23.515Z,8.94
2023-02-04T20:16:52.626Z,8.90
2023-02-04T20:19:21.858Z,8.88
2023-02-04T20:21:59.233Z,8.87
2023-02-04T20:24:31.435Z,8.85
2023-02-04T20:26:59.563Z,8.78
2023-02-04T20:29:27.416Z,8.78
2023-02-04T20:31:55.801Z,8.73
2023-02-04T20:34:24.581Z,8.72
2023-02-04T20:36:52.689Z,8.68
2023-02-04T20:39:41.482Z,8.65
2023-02-04T20:42:27.573Z,8.67
2023-02-04T20:44:56.019Z,8.60
2023-02-04T20:47:25.181Z,8.62
2023-02-04T20:49:55.230Z,8.60
2023-02-04T20:52:51.261Z,8.63
2023-02-04T20:55:27.296Z,8.56
2023-02-04T20:57:59.855Z,8.52
2023-02-04T21:00:30.303Z,8.51
2023-02-04T21:03:01.314Z,8.49
2023-02-04T21:05:29.189Z,8.49
2023-02-04T21:07:58.011Z,8.47
2023-02-04T21:10:27.334Z,8.46
2023-02-04T21:12:59.470Z,8.45
2023-02-04T21:15:27.447Z,8.41
2023-02-04T21:17:55.381Z,8.34
2023-02-04T21:20:23.332Z,8.33
2023-02-04T21:22:51.272Z,8.32
2023-02-04T21:25:19.218Z,8.31
2023-02-04T21:27:48.490Z,8.28
2023-02-04T21:30:17.632Z,8.29
2023-02-04T21:32:45.781Z,8.26
2023-02-04T21:35:13.742Z,8.24
2023-02-04T21:37:41.596Z,8.22
2023-02-04T21:40:09.927Z,8.21
2023-02-04T21:42:37.901Z,8.16
2023-02-04T21:45:08.138Z,8.11
2023-02-04T21:47:36.119Z,8.14
2023-02-04T21:50:03.993Z,8.15
2023-02-04T21:52:32.007Z,8.15
2023-02-04T21:54:59.882Z,8.13
2023-02-04T21:57:27.680Z,8.10
2023-02-04T21:59:55.756Z,8.08
2023-02-04T22:02:25.690Z,8.05
2023-02-04T22:04:53.586Z,8.03
2023-02-04T22:07:21.693Z,8.00
2023-02-04T22:09:50.277Z,7.97
2023-02-04T22:12:18.169Z,7.96
2023-02-04T22:15:04.458Z,7.97
2023-02-04T22:17:33.975Z,7.96
2023-02-04T22:20:01.874Z,7.99
2023-02-04T22:22:29.796Z,7.99
2023-02-04T22:24:57.742Z,7.96
2023-02-04T22:27:25.839Z,7.95
2023-02-04T22:29:53.869Z,7.93
2023-02-04T22:32:21.809Z,7.90
2023-02-04T22:34:51.206Z,7.89
2023-02-04T22:37:19.206Z,7.90
2023-02-04T22:39:47.036Z,7.90
2023-02-04T22:42:15.036Z,7.87
2023-02-04T22:44:43.094Z,7.84
2023-02-04T22:47:11.115Z,7.80
2023-02-04T22:49:39.011Z,7.80
2023-02-04T22:52:08.291Z,7.73
2023-02-04T22:54:37.907Z,7.72
2023-02-04T22:57:05.812Z,7.73
2023-02-04T22:59:33.836Z,7.72
2023-02-04T23:02:01.775Z,7.71
2023-02-04T23:04:29.723Z,7.69
2023-02-04T23:06:57.620Z,7.64
2023-02-04T23:09:27.000Z,7.66
2023-02-04T23:11:56.909Z,7.64
2023-02-04T23:14:24.844Z,7.61
2023-02-04T23:16:52.873Z,7.58
2023-02-04T23:19:20.784Z,7.57
2023-02-04T23:21:48.680Z,7.58
2023-02-04T23:24:16.638Z,7.58
2023-02-04T23:26:45.894Z,7.56
2023-02-04T23:29:13.877Z,7.50
2023-02-04T23:31:41.854Z,7.45
2023-02-04T23:34:09.741Z,7.32
2023-02-04T23:36:38.021Z,7.32
2023-02-04T23:39:05.953Z,7.32
2023-02-04T23:41:33.969Z,7.31
2023-02-04T23:44:03.185Z,7.33
2023-02-04T23:46:31.037Z,7.35
2023-02-04T23:48:58.917Z,7.30
2023-02-04T23:51:26.882Z,7.31
2023-02-04T23:53:54.771Z,7.29
2023-02-04T23:56:22.674Z,7.23
2023-02-04T23:58:50.635Z,7.24
